createdAt,value
2024-03-11T00:00:38.368Z,40.1
2024-03-11T00:05:36.732Z,38
2024-03-11T00:10:36.451Z,38.8
2024-03-11T00:15:36.168Z,38.8
2024-03-11T00:20:36.743Z,37.4
2024-03-11T00:25:36.635Z,37.4
2024-03-11T00:30:36.164Z,39.2
2024-03-11T00:35:35.212Z,37.8
2024-03-11T00:40:35.402Z,39.4
2024-03-11T00:45:34.756Z,39.4
2024-03-11T00:50:35.709Z,41.5
2024-03-11T00:55:34.598Z,37.3
2024-03-11T01:00:34.078Z,40.4
2024-03-11T01:05:34.215Z,39.2
2024-03-11T01:10:33.708Z,40.4
2024-03-11T01:15:33.592Z,39.2
2024-03-11T01:20:33.090Z,39
2024-03-11T01:25:32.802Z,40.9
2024-03-11T01:30:36.111Z,41.7
2024-03-11T01:35:32.619Z,42
2024-03-11T01:40:32.391Z,40.8
2024-03-11T01:45:33.551Z,40.1
2024-03-11T01:50:31.687Z,39.5
2024-03-11T01:55:31.639Z,39.7
2024-03-11T02:00:31.393Z,40.1
2024-03-11T02:05:31.490Z,38.6
2024-03-11T02:10:31.160Z,40.7
2024-03-11T02:15:31.213Z,38.9
2024-03-11T02:20:31.565Z,37.6
2024-03-11T02:25:31.692Z,40.3
2024-03-11T02:30:29.974Z,40.9
2024-03-11T02:35:29.571Z,39.6
2024-03-11T02:40:32.708Z,40.8
2024-03-11T02:45:31.304Z,39.7
2024-03-11T02:50:28.932Z,38.6
2024-03-11T02:55:30.414Z,40.3
2024-03-11T03:00:28.340Z,37.3
2024-03-11T03:05:28.291Z,39.2
2024-03-11T03:10:28.523Z,38
2024-03-11T03:15:27.693Z,39.7
2024-03-11T03:20:27.588Z,40.7
2024-03-11T03:25:31.997Z,39.9
2024-03-11T03:30:27.563Z,41.2
2024-03-11T03:35:26.782Z,43.2
2024-03-11T03:40:26.748Z,40.4
2024-03-11T03:45:26.613Z,40.1
2024-03-11T03:50:26.145Z,42.5
2024-03-11T03:55:25.755Z,39.7
2024-03-11T04:00:25.504Z,43
2024-03-11T04:05:27.283Z,43
2024-03-11T04:10:25.144Z,43
2024-03-11T04:15:25.266Z,47.1
2024-03-11T04:20:28.575Z,50.9
2024-03-11T04:25:24.834Z,49.1
2024-03-11T04:30:27.614Z,49
2024-03-11T04:35:25.808Z,54.3
2024-03-11T04:40:23.913Z,48
2024-03-11T04:45:23.196Z,45.6
2024-03-11T04:50:26.529Z,51.4
2024-03-11T04:55:22.873Z,52.1
2024-03-11T05:00:27.215Z,51.2
2024-03-11T05:05:22.360Z,53.9
2024-03-11T05:10:22.096Z,54.2
2024-03-11T05:15:22.581Z,54.3
2024-03-11T05:20:21.313Z,52.2
2024-03-11T05:25:21.103Z,52.2
2024-03-11T05:30:21.044Z,52.5
2024-03-11T05:35:23.161Z,54
2024-03-11T05:40:20.323Z,52.5
2024-03-11T05:45:19.863Z,51.8
2024-03-11T05:50:21.916Z,57.6
2024-03-11T05:55:22.979Z,55.4
2024-03-11T06:00:20.511Z,56.1
2024-03-11T06:05:20.245Z,55.6
2024-03-11T06:10:18.785Z,61.4
2024-03-11T06:15:18.420Z,60.1
2024-03-11T06:20:18.195Z,61.3
2024-03-11T06:25:18.085Z,63.2
2024-03-11T06:30:17.741Z,66.5
2024-03-11T06:35:17.790Z,67
2024-03-11T06:40:22.157Z,66.2
2024-03-11T06:45:16.611Z,64.9
2024-03-11T06:50:17.221Z,59.7
2024-03-11T06:55:17.763Z,61.7
2024-03-11T07:00:22.324Z,60.8
2024-03-11T07:05:15.513Z,61.3
2024-03-11T07:10:16.934Z,63.4
2024-03-11T07:15:15.025Z,61.4
2024-03-11T07:20:15.629Z,58.1
2024-03-11T07:25:17.252Z,58.6
2024-03-11T07:30:15.666Z,62.2
2024-03-11T07:35:15.595Z,57.6
2024-03-11T07:40:15.711Z,56.9
2024-03-11T07:45:15.684Z,60.7
2024-03-11T07:50:15.040Z,58.2
2024-03-11T07:55:13.402Z,58.6
2024-03-11T08:00:18.668Z,56.9
2024-03-11T08:05:14.793Z,54.9
2024-03-11T08:10:13.560Z,58
2024-03-11T08:15:13.753Z,56
2024-03-11T08:20:17.421Z,56.6
2024-03-11T08:25:12.595Z,50.9
2024-03-11T08:30:12.676Z,54.6
2024-03-11T08:35:11.134Z,54.7
2024-03-11T08:40:11.908Z,57.5
2024-03-11T08:45:12.539Z,53.9
2024-03-11T08:50:11.313Z,53.7
2024-03-11T08:55:10.580Z,55.1
2024-03-11T09:00:11.170Z,52.3
2024-03-11T09:05:13.433Z,53.2
2024-03-11T09:10:09.533Z,55.3
2024-03-11T09:15:13.860Z,50.6
2024-03-11T09:20:09.400Z,55.8
2024-03-11T09:25:08.844Z,51.6
2024-03-11T09:30:08.841Z,52.3
2024-03-11T09:35:10.364Z,49.5
2024-03-11T09:40:11.055Z,52
2024-03-11T09:45:11.157Z,47.7
2024-03-11T09:50:12.102Z,51
2024-03-11T09:55:09.923Z,49.9
2024-03-11T10:00:13.712Z,52.1
2024-03-11T10:05:09.532Z,53.6
2024-03-11T10:10:13.160Z,49.8
2024-03-11T10:15:07.465Z,48.6
2024-03-11T10:20:15.129Z,48.6
2024-03-11T10:25:07.292Z,49.2
2024-03-11T10:30:15.618Z,52.2
2024-03-11T10:35:07.100Z,51.1
2024-03-11T10:40:05.394Z,51.7
2024-03-11T10:45:06.541Z,52.3
2024-03-11T10:50:07.128Z,50.1
2024-03-11T10:55:13.489Z,51.6
2024-03-11T11:00:11.002Z,51.8
2024-03-11T11:05:06.997Z,51.6
2024-03-11T11:10:04.581Z,49.3
2024-03-11T11:15:04.726Z,53.6
2024-03-11T11:20:06.810Z,52.4
2024-03-11T11:25:03.884Z,52.2
2024-03-11T11:30:18.355Z,51.6
2024-03-11T11:35:02.591Z,51.1
2024-03-11T11:40:02.446Z,51.1
2024-03-11T11:45:02.076Z,53.6
2024-03-11T11:50:02.416Z,52.6
2024-03-11T11:55:08.396Z,53.8
2024-03-11T12:00:04.944Z,56.2
2024-03-11T12:05:02.539Z,56.4
2024-03-11T12:10:02.941Z,58.1
2024-03-11T12:15:03.838Z,55.1
2024-03-11T12:20:21.010Z,55.9
2024-03-11T12:25:08.899Z,55.6
2024-03-11T12:30:10.039Z,52.9
2024-03-11T12:34:59.702Z,54.1
2024-03-11T12:40:01.999Z,53.2
2024-03-11T12:45:04.628Z,56.7
2024-03-11T12:49:58.933Z,56.7
2024-03-11T12:55:08.732Z,61.5
2024-03-11T13:00:08.210Z,63.2
2024-03-11T13:04:58.468Z,60.6
2024-03-11T13:10:01.646Z,64.5
2024-03-11T13:14:57.810Z,63.8
2024-03-11T13:19:57.613Z,64.1
2024-03-11T13:25:05.653Z,69.2
2024-03-11T13:29:59.513Z,69.3
2024-03-11T13:34:57.058Z,63
2024-03-11T13:39:56.601Z,67.6
2024-03-11T13:44:56.221Z,67.4
2024-03-11T13:49:55.938Z,70.6
2024-03-11T13:54:55.768Z,69.1
2024-03-11T13:59:55.547Z,74.1
2024-03-11T14:04:55.297Z,66.8
2024-03-11T14:09:56.559Z,67.7
2024-03-11T14:14:57.700Z,67.3
2024-03-11T14:19:54.627Z,67.7
2024-03-11T14:24:54.683Z,64.6
2024-03-11T14:29:54.351Z,60.5
2024-03-11T14:34:55.060Z,59.4
2024-03-11T14:39:55.712Z,60.9
2024-03-11T14:44:53.593Z,62.6
2024-03-11T14:49:53.391Z,55.9
2024-03-11T14:54:53.375Z,53.8
2024-03-11T14:59:56.104Z,48.1
2024-03-11T15:04:53.411Z,49.1
2024-03-11T15:09:57.157Z,53
2024-03-11T15:14:55.273Z,49.1
2024-03-11T15:19:52.168Z,45.6
2024-03-11T15:24:51.970Z,50.2
2024-03-11T15:29:51.791Z,54.4
2024-03-11T15:34:52.379Z,51
2024-03-11T15:39:51.353Z,51.5
2024-03-11T15:44:52.717Z,52.7
2024-03-11T15:49:51.398Z,49.5
2024-03-11T15:54:50.760Z,49.3
2024-03-11T15:59:50.465Z,51.3
2024-03-11T16:04:51.423Z,49.3
2024-03-11T16:10:01.457Z,51.2
2024-03-11T16:14:49.840Z,44.7
2024-03-11T16:19:50.409Z,49
2024-03-11T16:24:49.910Z,50.6
2024-03-11T16:29:49.383Z,55
2024-03-11T16:34:54.921Z,54.5
2024-03-11T16:39:48.825Z,57.2
2024-03-11T16:44:48.543Z,58.2
2024-03-11T16:49:49.552Z,58.7
2024-03-11T16:54:49.009Z,57
2024-03-11T16:59:48.834Z,57
2024-03-11T17:04:48.433Z,58.7
2024-03-11T17:09:47.653Z,56.6
2024-03-11T17:14:51.690Z,58.5
2024-03-11T17:19:48.300Z,56.5
2024-03-11T17:24:47.100Z,59.3
2024-03-11T17:29:46.423Z,64.1
2024-03-11T17:34:51.315Z,62.4
2024-03-11T17:39:45.936Z,66.2
2024-03-11T17:44:46.614Z,68.3
2024-03-11T17:49:47.303Z,71.2
2024-03-11T17:54:45.176Z,71.1
2024-03-11T17:59:45.582Z,71.3
2024-03-11T18:04:44.706Z,75.4
2024-03-11T18:09:44.541Z,70.9
2024-03-11T18:14:44.159Z,71.1
2024-03-11T18:19:45.519Z,71.4
2024-03-11T18:24:45.577Z,72.9
2024-03-11T18:29:46.471Z,71.6
2024-03-11T18:34:43.081Z,66.9
2024-03-11T18:39:43.157Z,68.3
2024-03-11T18:44:42.563Z,72.2
2024-03-11T18:49:43.119Z,69
2024-03-11T18:54:42.467Z,72.2
2024-03-11T18:59:41.704Z,72.3
2024-03-11T19:04:42.119Z,70.8
2024-03-11T19:09:41.233Z,74.8
2024-03-11T19:14:41.178Z,76.2
2024-03-11T19:19:40.538Z,73.5
2024-03-11T19:24:40.305Z,79.4
2024-03-11T19:29:41.793Z,81.2
2024-03-11T19:34:40.759Z,82.6
2024-03-11T19:40:06.374Z,83.8
2024-03-11T19:44:50.610Z,80.1
2024-03-11T19:49:56.881Z,90.2
2024-03-11T19:54:56.145Z,85.7
2024-03-11T19:59:49.840Z,94.1
2024-03-11T20:04:59.648Z,96.4
2024-03-11T20:09:51.942Z,92.8
2024-03-11T20:14:48.395Z,88.4
2024-03-11T20:19:50.761Z,95.6
2024-03-11T20:24:56.473Z,91.9
2024-03-11T20:29:42.913Z,97.5
2024-03-11T20:34:37.378Z,105.4
2024-03-11T20:39:38.826Z,97.3
2024-03-11T20:44:35.647Z,99.7
2024-03-11T20:49:35.308Z,105.9
2024-03-11T20:54:35.519Z,99.9
2024-03-11T20:59:34.693Z,101.2
2024-03-11T21:04:36.989Z,109.1
2024-03-11T21:09:35.840Z,119.7
2024-03-11T21:14:34.450Z,100.4
2024-03-11T21:19:49.936Z,100.1
2024-03-11T21:24:51.180Z,102.5
2024-03-11T21:29:33.478Z,106.1
2024-03-11T21:34:32.544Z,102.3
2024-03-11T21:39:32.219Z,107.2
2024-03-11T21:44:31.918Z,103.8
2024-03-11T21:49:32.993Z,95.6
2024-03-11T21:54:31.391Z,102.4
2024-03-11T21:59:31.724Z,89.6
2024-03-11T22:04:31.320Z,96.6
2024-03-11T22:09:30.512Z,103.6
2024-03-11T22:14:30.813Z,102
2024-03-11T22:19:31.722Z,101.3
2024-03-11T22:24:31.339Z,105.7
2024-03-11T22:29:29.811Z,101.5
2024-03-11T22:34:29.097Z,95.5
2024-03-11T22:39:29.185Z,93.6
2024-03-11T22:44:28.459Z,94.5
2024-03-11T22:49:28.986Z,97.5
2024-03-11T22:54:29.800Z,101.9
2024-03-11T22:59:27.623Z,88.1
2024-03-11T23:04:27.307Z,91.8
2024-03-11T23:09:29.352Z,101
2024-03-11T23:14:27.592Z,92.6
2024-03-11T23:19:26.544Z,101.9
2024-03-11T23:24:26.501Z,98.5
2024-03-11T23:29:26.814Z,100.5
2024-03-11T23:34:25.730Z,102.2
2024-03-11T23:39:26.977Z,100.9
2024-03-11T23:44:25.267Z,98
2024-03-11T23:49:25.039Z,101.2
2024-03-11T23:54:25.491Z,96.1
2024-03-11T23:59:24.739Z,109.6
